sensor_id;sensor_type;location;lat;lon;timestamp;P1;durP1;ratioP1;P2;durP2;ratioP2
65717;SDS011;52445;52.466;-1.016;2023-04-24T00:00:12;10.18;;;6.63;;
65717;SDS011;52445;52.466;-1.016;2023-04-24T00:02:42;11.63;;;7.72;;
65717;SDS011;52445;52.466;-1.016;2023-04-24T00:05:14;13.18;;;6.50;;
65717;SDS011;52445;52.466;-1.016;2023-04-24T00:07:41;9.75;;;3.88;;
65717;SDS011;52445;52.466;-1.016;2023-04-24T00:10:08;13.98;;;6.30;;
65717;SDS011;52445;52.466;-1.016;2023-04-24T00:12:35;11.75;;;5.57;;
65717;SDS011;52445;52.466;-1.016;2023-04-24T00:15:02;13.48;;;6.82;;
65717;SDS011;52445;52.466;-1.016;2023-04-24T00:17:29;12.73;;;6.00;;
65717;SDS011;52445;52.466;-1.016;2023-04-24T00:19:56;8.27;;;4.63;;
65717;SDS011;52445;52.466;-1.016;2023-04-24T00:22:25;14.13;;;5.75;;
65717;SDS011;52445;52.466;-1.016;2023-04-24T00:24:52;7.90;;;4.20;;
65717;SDS011;52445;52.466;-1.016;2023-04-24T00:27:19;11.52;;;4.97;;
65717;SDS011;52445;52.466;-1.016;2023-04-24T00:29:45;18.70;;;6.13;;
65717;SDS011;52445;52.466;-1.016;2023-04-24T00:32:12;9.02;;;5.63;;
65717;SDS011;52445;52.466;-1.016;2023-04-24T00:34:39;9.60;;;5.03;;
65717;SDS011;52445;52.466;-1.016;2023-04-24T00:37:06;12.38;;;5.78;;
65717;SDS011;52445;52.466;-1.016;2023-04-24T00:39:32;9.95;;;4.68;;
65717;SDS011;52445;52.466;-1.016;2023-04-24T00:41:59;8.68;;;4.65;;
65717;SDS011;52445;52.466;-1.016;2023-04-24T00:44:27;7.85;;;3.50;;
65717;SDS011;52445;52.466;-1.016;2023-04-24T00:46:54;9.65;;;7.18;;
65717;SDS011;52445;52.466;-1.016;2023-04-24T00:49:21;9.05;;;4.05;;
65717;SDS011;52445;52.466;-1.016;2023-04-24T00:51:48;11.40;;;4.43;;
65717;SDS011;52445;52.466;-1.016;2023-04-24T00:54:17;7.97;;;3.50;;
65717;SDS011;52445;52.466;-1.016;2023-04-24T00:56:44;12.23;;;4.90;;
65717;SDS011;52445;52.466;-1.016;2023-04-24T00:59:11;6.85;;;3.42;;
65717;SDS011;52445;52.466;-1.016;2023-04-24T01:01:39;6.18;;;3.72;;
65717;SDS011;52445;52.466;-1.016;2023-04-24T01:04:08;10.00;;;5.30;;
65717;SDS011;52445;52.466;-1.016;2023-04-24T01:06:37;10.40;;;5.28;;
65717;SDS011;52445;52.466;-1.016;2023-04-24T01:09:06;9.02;;;4.00;;
65717;SDS011;52445;52.466;-1.016;2023-04-24T01:11:35;9.18;;;4.72;;
65717;SDS011;52445;52.466;-1.016;2023-04-24T01:14:03;7.22;;;4.90;;
65717;SDS011;52445;52.466;-1.016;2023-04-24T01:16:30;10.80;;;5.13;;
65717;SDS011;52445;52.466;-1.016;2023-04-24T01:18:56;9.40;;;4.75;;
65717;SDS011;52445;52.466;-1.016;2023-04-24T01:21:23;8.07;;;4.35;;
65717;SDS011;52445;52.466;-1.016;2023-04-24T01:23:51;10.00;;;4.22;;
65717;SDS011;52445;52.466;-1.016;2023-04-24T01:26:18;7.10;;;4.68;;
65717;SDS011;52445;52.466;-1.016;2023-04-24T01:28:46;8.23;;;4.50;;
65717;SDS011;52445;52.466;-1.016;2023-04-24T01:31:14;9.68;;;4.38;;
65717;SDS011;52445;52.466;-1.016;2023-04-24T01:33:42;9.13;;;4.50;;
65717;SDS011;52445;52.466;-1.016;2023-04-24T01:36:10;3.72;;;3.08;;
65717;SDS011;52445;52.466;-1.016;2023-04-24T01:38:37;9.05;;;4.25;;
65717;SDS011;52445;52.466;-1.016;2023-04-24T01:41:04;7.05;;;4.20;;
65717;SDS011;52445;52.466;-1.016;2023-04-24T01:43:31;9.30;;;3.80;;
65717;SDS011;52445;52.466;-1.016;2023-04-24T01:45:58;8.38;;;2.65;;
65717;SDS011;52445;52.466;-1.016;2023-04-24T01:48:24;6.70;;;3.40;;
65717;SDS011;52445;52.466;-1.016;2023-04-24T01:50:51;6.50;;;3.53;;
65717;SDS011;52445;52.466;-1.016;2023-04-24T01:53:18;6.15;;;3.72;;
65717;SDS011;52445;52.466;-1.016;2023-04-24T01:55:44;6.70;;;3.38;;
65717;SDS011;52445;52.466;-1.016;2023-04-24T01:58:11;9.05;;;3.88;;
65717;SDS011;52445;52.466;-1.016;2023-04-24T02:00:38;5.97;;;4.05;;
65717;SDS011;52445;52.466;-1.016;2023-04-24T02:03:07;9.82;;;3.85;;
65717;SDS011;52445;52.466;-1.016;2023-04-24T02:05:34;7.07;;;4.07;;
65717;SDS011;52445;52.466;-1.016;2023-04-24T02:08:00;4.35;;;2.63;;
65717;SDS011;52445;52.466;-1.016;2023-04-24T02:10:27;6.50;;;3.17;;
65717;SDS011;52445;52.466;-1.016;2023-04-24T02:12:53;5.55;;;3.08;;
65717;SDS011;52445;52.466;-1.016;2023-04-24T02:15:20;3.15;;;2.25;;
65717;SDS011;52445;52.466;-1.016;2023-04-24T02:17:47;4.68;;;2.08;;
65717;SDS011;52445;52.466;-1.016;2023-04-24T02:20:13;5.35;;;2.83;;
65717;SDS011;52445;52.466;-1.016;2023-04-24T02:22:40;7.22;;;2.95;;
65717;SDS011;52445;52.466;-1.016;2023-04-24T02:25:07;6.13;;;2.05;;
65717;SDS011;52445;52.466;-1.016;2023-04-24T02:27:34;4.45;;;2.50;;
65717;SDS011;52445;52.466;-1.016;2023-04-24T02:30:01;8.73;;;2.97;;
65717;SDS011;52445;52.466;-1.016;2023-04-24T02:32:27;4.15;;;2.38;;
65717;SDS011;52445;52.466;-1.016;2023-04-24T02:34:54;5.22;;;2.72;;
65717;SDS011;52445;52.466;-1.016;2023-04-24T02:37:20;2.92;;;2.70;;
65717;SDS011;52445;52.466;-1.016;2023-04-24T02:39:47;2.63;;;1.80;;
65717;SDS011;52445;52.466;-1.016;2023-04-24T02:42:14;5.30;;;2.92;;
65717;SDS011;52445;52.466;-1.016;2023-04-24T02:44:41;8.20;;;2.35;;
65717;SDS011;52445;52.466;-1.016;2023-04-24T02:47:08;6.68;;;2.58;;
65717;SDS011;52445;52.466;-1.016;2023-04-24T02:49:35;7.00;;;3.13;;
65717;SDS011;52445;52.466;-1.016;2023-04-24T02:52:01;5.07;;;2.85;;
65717;SDS011;52445;52.466;-1.016;2023-04-24T02:54:28;5.95;;;3.10;;
65717;SDS011;52445;52.466;-1.016;2023-04-24T02:56:54;6.47;;;2.42;;
65717;SDS011;52445;52.466;-1.016;2023-04-24T02:59:21;3.63;;;2.35;;
65717;SDS011;52445;52.466;-1.016;2023-04-24T03:01:47;3.08;;;2.00;;
65717;SDS011;52445;52.466;-1.016;2023-04-24T03:04:14;4.93;;;1.80;;
65717;SDS011;52445;52.466;-1.016;2023-04-24T03:06:42;4.68;;;1.60;;
65717;SDS011;52445;52.466;-1.016;2023-04-24T03:09:09;9.10;;;2.00;;
65717;SDS011;52445;52.466;-1.016;2023-04-24T03:11:35;2.65;;;2.22;;
65717;SDS011;52445;52.466;-1.016;2023-04-24T03:14:02;4.80;;;1.83;;
65717;SDS011;52445;52.466;-1.016;2023-04-24T03:16:28;5.72;;;2.78;;
65717;SDS011;52445;52.466;-1.016;2023-04-24T03:18:55;8.20;;;2.28;;
65717;SDS011;52445;52.466;-1.016;2023-04-24T03:21:22;4.28;;;1.80;;
65717;SDS011;52445;52.466;-1.016;2023-04-24T03:23:48;3.85;;;2.25;;
65717;SDS011;52445;52.466;-1.016;2023-04-24T03:26:15;3.05;;;2.50;;
65717;SDS011;52445;52.466;-1.016;2023-04-24T03:28:41;3.88;;;2.30;;
65717;SDS011;52445;52.466;-1.016;2023-04-24T03:31:08;2.55;;;2.03;;
65717;SDS011;52445;52.466;-1.016;2023-04-24T03:33:35;5.15;;;2.05;;
65717;SDS011;52445;52.466;-1.016;2023-04-24T03:36:02;3.88;;;2.00;;
65717;SDS011;52445;52.466;-1.016;2023-04-24T03:38:29;2.50;;;2.30;;
65717;SDS011;52445;52.466;-1.016;2023-04-24T03:40:55;5.20;;;2.63;;
65717;SDS011;52445;52.466;-1.016;2023-04-24T03:43:22;9.57;;;3.38;;
65717;SDS011;52445;52.466;-1.016;2023-04-24T03:45:48;7.18;;;2.67;;
65717;SDS011;52445;52.466;-1.016;2023-04-24T03:48:15;5.03;;;2.70;;
65717;SDS011;52445;52.466;-1.016;2023-04-24T03:50:41;4.20;;;2.55;;
65717;SDS011;52445;52.466;-1.016;2023-04-24T03:53:08;3.20;;;2.10;;
65717;SDS011;52445;52.466;-1.016;2023-04-24T03:55:34;3.33;;;2.58;;
65717;SDS011;52445;52.466;-1.016;2023-04-24T03:58:01;2.53;;;2.33;;
65717;SDS011;52445;52.466;-1.016;2023-04-24T04:00:28;5.53;;;2.63;;
65717;SDS011;52445;52.466;-1.016;2023-04-24T04:02:54;8.95;;;2.92;;
65717;SDS011;52445;52.466;-1.016;2023-04-24T04:05:21;4.05;;;1.85;;
65717;SDS011;52445;52.466;-1.016;2023-04-24T04:07:48;3.53;;;2.10;;
65717;SDS011;52445;52.466;-1.016;2023-04-24T04:10:15;4.60;;;2.42;;
65717;SDS011;52445;52.466;-1.016;2023-04-24T04:12:43;2.38;;;1.88;;
65717;SDS011;52445;52.466;-1.016;2023-04-24T04:15:09;4.28;;;2.25;;
65717;SDS011;52445;52.466;-1.016;2023-04-24T04:17:36;3.15;;;2.33;;
65717;SDS011;52445;52.466;-1.016;2023-04-24T04:20:04;2.90;;;2.55;;
65717;SDS011;52445;52.466;-1.016;2023-04-24T04:22:36;7.78;;;2.22;;
65717;SDS011;52445;52.466;-1.016;2023-04-24T04:25:03;3.33;;;2.42;;
65717;SDS011;52445;52.466;-1.016;2023-04-24T04:27:30;4.82;;;2.53;;
65717;SDS011;52445;52.466;-1.016;2023-04-24T04:29:58;7.03;;;2.55;;
65717;SDS011;52445;52.466;-1.016;2023-04-24T04:32:29;6.90;;;2.60;;
65717;SDS011;52445;52.466;-1.016;2023-04-24T04:34:55;7.55;;;2.72;;
65717;SDS011;52445;52.466;-1.016;2023-04-24T04:37:22;2.90;;;1.42;;
65717;SDS011;52445;52.466;-1.016;2023-04-24T04:39:48;4.28;;;2.92;;
65717;SDS011;52445;52.466;-1.016;2023-04-24T04:42:15;3.30;;;2.45;;
65717;SDS011;52445;52.466;-1.016;2023-04-24T04:44:42;3.85;;;2.65;;
65717;SDS011;52445;52.466;-1.016;2023-04-24T04:47:08;6.57;;;2.83;;
65717;SDS011;52445;52.466;-1.016;2023-04-24T04:49:37;4.72;;;3.30;;
65717;SDS011;52445;52.466;-1.016;2023-04-24T04:52:04;5.18;;;3.00;;
65717;SDS011;52445;52.466;-1.016;2023-04-24T04:54:31;5.40;;;2.63;;
65717;SDS011;52445;52.466;-1.016;2023-04-24T04:56:58;4.55;;;1.20;;
65717;SDS011;52445;52.466;-1.016;2023-04-24T04:59:25;6.38;;;2.70;;
65717;SDS011;52445;52.466;-1.016;2023-04-24T05:01:51;7.78;;;2.67;;
65717;SDS011;52445;52.466;-1.016;2023-04-24T05:04:18;9.55;;;2.83;;
65717;SDS011;52445;52.466;-1.016;2023-04-24T05:06:45;3.08;;;2.78;;
65717;SDS011;52445;52.466;-1.016;2023-04-24T05:09:13;3.78;;;2.97;;
65717;SDS011;52445;52.466;-1.016;2023-04-24T05:11:39;3.65;;;2.92;;
65717;SDS011;52445;52.466;-1.016;2023-04-24T05:14:06;4.40;;;3.10;;
65717;SDS011;52445;52.466;-1.016;2023-04-24T05:16:32;6.28;;;3.38;;
65717;SDS011;52445;52.466;-1.016;2023-04-24T05:18:59;5.55;;;2.33;;
65717;SDS011;52445;52.466;-1.016;2023-04-24T05:21:26;6.93;;;3.13;;
65717;SDS011;52445;52.466;-1.016;2023-04-24T05:23:53;4.00;;;2.92;;
65717;SDS011;52445;52.466;-1.016;2023-04-24T05:26:19;3.83;;;3.17;;
65717;SDS011;52445;52.466;-1.016;2023-04-24T05:28:46;7.90;;;3.25;;
65717;SDS011;52445;52.466;-1.016;2023-04-24T05:31:12;4.68;;;2.55;;
65717;SDS011;52445;52.466;-1.016;2023-04-24T05:33:39;5.95;;;3.15;;
65717;SDS011;52445;52.466;-1.016;2023-04-24T05:36:06;5.00;;;1.30;;
65717;SDS011;52445;52.466;-1.016;2023-04-24T05:38:32;5.22;;;2.92;;
65717;SDS011;52445;52.466;-1.016;2023-04-24T05:40:59;2.63;;;2.15;;
65717;SDS011;52445;52.466;-1.016;2023-04-24T05:43:26;4.70;;;2.58;;
65717;SDS011;52445;52.466;-1.016;2023-04-24T05:45:52;3.50;;;1.30;;
65717;SDS011;52445;52.466;-1.016;2023-04-24T05:48:19;5.53;;;3.30;;
65717;SDS011;52445;52.466;-1.016;2023-04-24T05:50:46;6.75;;;3.03;;
65717;SDS011;52445;52.466;-1.016;2023-04-24T05:53:14;6.68;;;2.40;;
65717;SDS011;52445;52.466;-1.016;2023-04-24T05:55:40;3.72;;;3.38;;
65717;SDS011;52445;52.466;-1.016;2023-04-24T05:58:07;4.97;;;2.30;;
65717;SDS011;52445;52.466;-1.016;2023-04-24T06:00:34;3.88;;;2.20;;
65717;SDS011;52445;52.466;-1.016;2023-04-24T06:03:01;2.72;;;2.10;;
65717;SDS011;52445;52.466;-1.016;2023-04-24T06:05:30;2.03;;;0.50;;
65717;SDS011;52445;52.466;-1.016;2023-04-24T06:07:57;3.08;;;1.95;;
65717;SDS011;52445;52.466;-1.016;2023-04-24T06:10:23;5.22;;;2.35;;
65717;SDS011;52445;52.466;-1.016;2023-04-24T06:12:50;3.65;;;3.15;;
65717;SDS011;52445;52.466;-1.016;2023-04-24T06:15:16;3.95;;;2.90;;
65717;SDS011;52445;52.466;-1.016;2023-04-24T06:17:43;3.70;;;2.40;;
65717;SDS011;52445;52.466;-1.016;2023-04-24T06:20:10;3.30;;;2.63;;
65717;SDS011;52445;52.466;-1.016;2023-04-24T06:22:37;4.97;;;2.92;;
65717;SDS011;52445;52.466;-1.016;2023-04-24T06:25:06;2.40;;;1.60;;
65717;SDS011;52445;52.466;-1.016;2023-04-24T06:27:33;3.17;;;2.30;;
65717;SDS011;52445;52.466;-1.016;2023-04-24T06:30:00;2.88;;;2.50;;
65717;SDS011;52445;52.466;-1.016;2023-04-24T06:32:26;5.97;;;2.55;;
65717;SDS011;52445;52.466;-1.016;2023-04-24T06:34:53;2.88;;;2.53;;
65717;SDS011;52445;52.466;-1.016;2023-04-24T06:37:20;5.95;;;2.25;;
65717;SDS011;52445;52.466;-1.016;2023-04-24T06:39:46;3.35;;;0.93;;
65717;SDS011;52445;52.466;-1.016;2023-04-24T06:42:13;3.92;;;2.53;;
65717;SDS011;52445;52.466;-1.016;2023-04-24T06:44:40;5.65;;;2.20;;
65717;SDS011;52445;52.466;-1.016;2023-04-24T06:47:07;2.80;;;2.10;;
65717;SDS011;52445;52.466;-1.016;2023-04-24T06:49:36;4.57;;;2.90;;
65717;SDS011;52445;52.466;-1.016;2023-04-24T06:52:03;4.95;;;2.55;;
65717;SDS011;52445;52.466;-1.016;2023-04-24T06:54:30;4.13;;;2.08;;
65717;SDS011;52445;52.466;-1.016;2023-04-24T06:56:58;6.22;;;2.17;;
65717;SDS011;52445;52.466;-1.016;2023-04-24T06:59:27;4.72;;;2.00;;
65717;SDS011;52445;52.466;-1.016;2023-04-24T07:01:54;5.13;;;3.00;;
65717;SDS011;52445;52.466;-1.016;2023-04-24T07:04:22;4.30;;;1.83;;
65717;SDS011;52445;52.466;-1.016;2023-04-24T07:06:49;4.18;;;2.15;;
65717;SDS011;52445;52.466;-1.016;2023-04-24T07:09:15;4.78;;;2.40;;
65717;SDS011;52445;52.466;-1.016;2023-04-24T07:11:45;4.18;;;1.38;;
65717;SDS011;52445;52.466;-1.016;2023-04-24T07:14:12;2.65;;;1.77;;
65717;SDS011;52445;52.466;-1.016;2023-04-24T07:16:39;3.38;;;2.28;;
65717;SDS011;52445;52.466;-1.016;2023-04-24T07:19:07;5.57;;;2.90;;
65717;SDS011;52445;52.466;-1.016;2023-04-24T07:21:34;3.67;;;1.92;;
65717;SDS011;52445;52.466;-1.016;2023-04-24T07:24:01;3.75;;;2.30;;
65717;SDS011;52445;52.466;-1.016;2023-04-24T07:26:30;5.60;;;2.35;;
65717;SDS011;52445;52.466;-1.016;2023-04-24T07:28:57;3.10;;;2.50;;
65717;SDS011;52445;52.466;-1.016;2023-04-24T07:31:24;8.90;;;2.85;;
65717;SDS011;52445;52.466;-1.016;2023-04-24T07:33:51;3.40;;;2.10;;
65717;SDS011;52445;52.466;-1.016;2023-04-24T07:36:17;2.70;;;2.40;;
65717;SDS011;52445;52.466;-1.016;2023-04-24T07:38:45;3.70;;;2.20;;
65717;SDS011;52445;52.466;-1.016;2023-04-24T07:41:13;3.45;;;2.05;;
65717;SDS011;52445;52.466;-1.016;2023-04-24T07:43:40;2.92;;;2.03;;
65717;SDS011;52445;52.466;-1.016;2023-04-24T07:46:07;2.25;;;1.75;;
65717;SDS011;52445;52.466;-1.016;2023-04-24T07:48:35;2.63;;;2.20;;
65717;SDS011;52445;52.466;-1.016;2023-04-24T07:51:02;3.58;;;2.92;;
65717;SDS011;52445;52.466;-1.016;2023-04-24T07:53:29;4.70;;;2.83;;
65717;SDS011;52445;52.466;-1.016;2023-04-24T07:55:56;5.57;;;2.25;;
65717;SDS011;52445;52.466;-1.016;2023-04-24T07:58:22;5.53;;;2.63;;
65717;SDS011;52445;52.466;-1.016;2023-04-24T08:00:49;4.07;;;2.50;;
65717;SDS011;52445;52.466;-1.016;2023-04-24T08:03:16;3.78;;;0.90;;
65717;SDS011;52445;52.466;-1.016;2023-04-24T08:05:45;3.08;;;2.33;;
65717;SDS011;52445;52.466;-1.016;2023-04-24T08:08:12;3.20;;;2.45;;
65717;SDS011;52445;52.466;-1.016;2023-04-24T08:10:39;3.65;;;2.97;;
65717;SDS011;52445;52.466;-1.016;2023-04-24T08:13:06;3.72;;;2.17;;
65717;SDS011;52445;52.466;-1.016;2023-04-24T08:15:32;8.88;;;2.30;;
65717;SDS011;52445;52.466;-1.016;2023-04-24T08:17:59;2.30;;;2.10;;
65717;SDS011;52445;52.466;-1.016;2023-04-24T08:20:26;2.47;;;1.90;;
65717;SDS011;52445;52.466;-1.016;2023-04-24T08:22:53;1.30;;;0.45;;
65717;SDS011;52445;52.466;-1.016;2023-04-24T08:25:20;5.25;;;2.30;;
65717;SDS011;52445;52.466;-1.016;2023-04-24T08:27:49;5.68;;;2.35;;
65717;SDS011;52445;52.466;-1.016;2023-04-24T08:30:15;4.10;;;2.05;;
65717;SDS011;52445;52.466;-1.016;2023-04-24T08:32:42;4.18;;;3.08;;
65717;SDS011;52445;52.466;-1.016;2023-04-24T08:35:09;2.85;;;2.40;;
65717;SDS011;52445;52.466;-1.016;2023-04-24T08:37:36;4.55;;;2.53;;
65717;SDS011;52445;52.466;-1.016;2023-04-24T08:40:04;3.55;;;2.67;;
65717;SDS011;52445;52.466;-1.016;2023-04-24T08:42:37;3.42;;;3.13;;
65717;SDS011;52445;52.466;-1.016;2023-04-24T08:45:06;9.90;;;3.30;;
65717;SDS011;52445;52.466;-1.016;2023-04-24T08:47:33;5.70;;;2.42;;
65717;SDS011;52445;52.466;-1.016;2023-04-24T08:50:02;3.63;;;2.85;;
65717;SDS011;52445;52.466;-1.016;2023-04-24T08:52:32;3.38;;;2.22;;
65717;SDS011;52445;52.466;-1.016;2023-04-24T08:55:00;8.40;;;2.72;;
65717;SDS011;52445;52.466;-1.016;2023-04-24T08:57:27;3.50;;;2.88;;
65717;SDS011;52445;52.466;-1.016;2023-04-24T08:59:55;5.68;;;3.17;;
65717;SDS011;52445;52.466;-1.016;2023-04-24T09:02:23;5.30;;;4.38;;
65717;SDS011;52445;52.466;-1.016;2023-04-24T09:04:51;4.72;;;2.60;;
65717;SDS011;52445;52.466;-1.016;2023-04-24T09:07:19;6.38;;;2.88;;
65717;SDS011;52445;52.466;-1.016;2023-04-24T09:09:47;2.38;;;2.15;;
65717;SDS011;52445;52.466;-1.016;2023-04-24T09:12:16;3.70;;;1.10;;
65717;SDS011;52445;52.466;-1.016;2023-04-24T09:14:44;3.08;;;2.58;;
65717;SDS011;52445;52.466;-1.016;2023-04-24T09:17:12;7.43;;;2.67;;
65717;SDS011;52445;52.466;-1.016;2023-04-24T09:19:39;3.60;;;2.53;;
65717;SDS011;52445;52.466;-1.016;2023-04-24T09:22:07;8.82;;;3.15;;
65717;SDS011;52445;52.466;-1.016;2023-04-24T09:24:35;4.85;;;3.08;;
65717;SDS011;52445;52.466;-1.016;2023-04-24T09:27:02;4.13;;;1.10;;
65717;SDS011;52445;52.466;-1.016;2023-04-24T09:29:32;8.50;;;2.75;;
65717;SDS011;52445;52.466;-1.016;2023-04-24T09:31:59;3.60;;;2.83;;
65717;SDS011;52445;52.466;-1.016;2023-04-24T09:34:26;5.70;;;3.58;;
65717;SDS011;52445;52.466;-1.016;2023-04-24T09:36:53;8.07;;;3.47;;
65717;SDS011;52445;52.466;-1.016;2023-04-24T09:39:21;6.22;;;2.92;;
65717;SDS011;52445;52.466;-1.016;2023-04-24T09:41:52;4.88;;;2.55;;
65717;SDS011;52445;52.466;-1.016;2023-04-24T09:44:20;4.65;;;2.80;;
65717;SDS011;52445;52.466;-1.016;2023-04-24T09:46:49;4.75;;;2.92;;
65717;SDS011;52445;52.466;-1.016;2023-04-24T09:49:22;4.60;;;3.10;;
65717;SDS011;52445;52.466;-1.016;2023-04-24T09:51:50;5.05;;;3.22;;
65717;SDS011;52445;52.466;-1.016;2023-04-24T09:54:18;6.68;;;3.38;;
65717;SDS011;52445;52.466;-1.016;2023-04-24T09:56:50;3.70;;;2.60;;
65717;SDS011;52445;52.466;-1.016;2023-04-24T09:59:18;6.45;;;3.20;;
65717;SDS011;52445;52.466;-1.016;2023-04-24T10:01:45;4.47;;;3.08;;
65717;SDS011;52445;52.466;-1.016;2023-04-24T10:04:15;4.18;;;3.25;;
65717;SDS011;52445;52.466;-1.016;2023-04-24T10:06:52;4.05;;;1.20;;
65717;SDS011;52445;52.466;-1.016;2023-04-24T10:09:21;6.50;;;1.10;;
65717;SDS011;52445;52.466;-1.016;2023-04-24T10:11:51;4.15;;;1.05;;
65717;SDS011;52445;52.466;-1.016;2023-04-24T10:14:21;4.50;;;1.20;;
65717;SDS011;52445;52.466;-1.016;2023-04-24T10:16:51;5.78;;;1.63;;
65717;SDS011;52445;52.466;-1.016;2023-04-24T10:19:19;6.60;;;1.70;;
65717;SDS011;52445;52.466;-1.016;2023-04-24T10:21:47;4.82;;;1.05;;
65717;SDS011;52445;52.466;-1.016;2023-04-24T10:24:14;4.20;;;1.60;;
65717;SDS011;52445;52.466;-1.016;2023-04-24T10:26:43;6.90;;;1.63;;
65717;SDS011;52445;52.466;-1.016;2023-04-24T10:29:12;5.97;;;0.90;;
65717;SDS011;52445;52.466;-1.016;2023-04-24T10:31:39;6.40;;;1.40;;
65717;SDS011;52445;52.466;-1.016;2023-04-24T10:34:07;4.15;;;1.00;;
65717;SDS011;52445;52.466;-1.016;2023-04-24T10:36:38;3.60;;;1.52;;
65717;SDS011;52445;52.466;-1.016;2023-04-24T10:39:08;6.55;;;1.23;;
65717;SDS011;52445;52.466;-1.016;2023-04-24T10:44:06;4.38;;;1.55;;
65717;SDS011;52445;52.466;-1.016;2023-04-24T10:46:36;3.70;;;1.40;;
65717;SDS011;52445;52.466;-1.016;2023-04-24T10:49:05;8.82;;;1.52;;
65717;SDS011;52445;52.466;-1.016;2023-04-24T10:51:49;4.10;;;1.15;;
65717;SDS011;52445;52.466;-1.016;2023-04-24T10:54:27;6.47;;;2.63;;
65717;SDS011;52445;52.466;-1.016;2023-04-24T11:05:16;5.63;;;2.80;;
65717;SDS011;52445;52.466;-1.016;2023-04-24T11:10:59;5.70;;;1.85;;
65717;SDS011;52445;52.466;-1.016;2023-04-24T11:16:15;6.60;;;2.28;;
65717;SDS011;52445;52.466;-1.016;2023-04-24T11:18:49;2.95;;;1.45;;
65717;SDS011;52445;52.466;-1.016;2023-04-24T11:21:19;3.47;;;1.67;;
65717;SDS011;52445;52.466;-1.016;2023-04-24T11:23:48;3.20;;;1.08;;
65717;SDS011;52445;52.466;-1.016;2023-04-24T11:26:19;4.03;;;1.60;;
65717;SDS011;52445;52.466;-1.016;2023-04-24T11:28:49;3.85;;;1.15;;
65717;SDS011;52445;52.466;-1.016;2023-04-24T11:34:06;4.65;;;1.65;;
65717;SDS011;52445;52.466;-1.016;2023-04-24T11:36:35;2.33;;;1.33;;
65717;SDS011;52445;52.466;-1.016;2023-04-24T11:39:02;2.47;;;1.35;;
65717;SDS011;52445;52.466;-1.016;2023-04-24T11:41:29;4.40;;;1.15;;
65717;SDS011;52445;52.466;-1.016;2023-04-24T11:43:56;5.88;;;1.92;;
65717;SDS011;52445;52.466;-1.016;2023-04-24T11:46:26;2.65;;;1.10;;
65717;SDS011;52445;52.466;-1.016;2023-04-24T11:48:55;4.57;;;1.27;;
65717;SDS011;52445;52.466;-1.016;2023-04-24T11:51:22;2.65;;;1.45;;
65717;SDS011;52445;52.466;-1.016;2023-04-24T11:54:02;5.32;;;1.10;;
65717;SDS011;52445;52.466;-1.016;2023-04-24T11:56:38;4.65;;;2.42;;
65717;SDS011;52445;52.466;-1.016;2023-04-24T11:59:11;2.67;;;1.52;;
65717;SDS011;52445;52.466;-1.016;2023-04-24T12:01:45;5.22;;;1.10;;
65717;SDS011;52445;52.466;-1.016;2023-04-24T12:04:13;3.58;;;1.77;;
65717;SDS011;52445;52.466;-1.016;2023-04-24T12:06:58;3.65;;;1.60;;
65717;SDS011;52445;52.466;-1.016;2023-04-24T12:09:26;5.03;;;1.70;;
65717;SDS011;52445;52.466;-1.016;2023-04-24T12:11:53;5.00;;;1.48;;
65717;SDS011;52445;52.466;-1.016;2023-04-24T12:14:23;5.57;;;1.88;;
65717;SDS011;52445;52.466;-1.016;2023-04-24T12:16:50;5.65;;;1.63;;
65717;SDS011;52445;52.466;-1.016;2023-04-24T12:19:18;4.07;;;1.27;;
65717;SDS011;52445;52.466;-1.016;2023-04-24T12:22:03;4.38;;;1.45;;
65717;SDS011;52445;52.466;-1.016;2023-04-24T12:24:31;3.15;;;0.88;;
65717;SDS011;52445;52.466;-1.016;2023-04-24T12:26:58;6.32;;;1.42;;
65717;SDS011;52445;52.466;-1.016;2023-04-24T12:29:24;4.82;;;1.60;;
65717;SDS011;52445;52.466;-1.016;2023-04-24T12:31:51;4.28;;;1.10;;
65717;SDS011;52445;52.466;-1.016;2023-04-24T12:34:19;4.97;;;1.48;;
65717;SDS011;52445;52.466;-1.016;2023-04-24T12:36:47;3.92;;;1.52;;
65717;SDS011;52445;52.466;-1.016;2023-04-24T12:39:15;3.75;;;2.38;;
65717;SDS011;52445;52.466;-1.016;2023-04-24T12:41:54;4.13;;;1.45;;
65717;SDS011;52445;52.466;-1.016;2023-04-24T12:44:31;3.78;;;1.92;;
65717;SDS011;52445;52.466;-1.016;2023-04-24T12:47:00;7.95;;;2.17;;
65717;SDS011;52445;52.466;-1.016;2023-04-24T12:49:29;5.80;;;1.30;;
65717;SDS011;52445;52.466;-1.016;2023-04-24T12:51:58;5.85;;;1.42;;
65717;SDS011;52445;52.466;-1.016;2023-04-24T12:54:26;3.25;;;1.30;;
65717;SDS011;52445;52.466;-1.016;2023-04-24T12:57:00;4.97;;;1.13;;
65717;SDS011;52445;52.466;-1.016;2023-04-24T12:59:28;4.72;;;1.58;;
65717;SDS011;52445;52.466;-1.016;2023-04-24T13:01:56;3.35;;;1.00;;
65717;SDS011;52445;52.466;-1.016;2023-04-24T13:04:23;5.72;;;1.42;;
65717;SDS011;52445;52.466;-1.016;2023-04-24T13:06:49;5.30;;;1.90;;
65717;SDS011;52445;52.466;-1.016;2023-04-24T13:09:16;4.82;;;2.72;;
65717;SDS011;52445;52.466;-1.016;2023-04-24T13:11:43;4.10;;;1.80;;
65717;SDS011;52445;52.466;-1.016;2023-04-24T13:14:10;5.13;;;1.90;;
65717;SDS011;52445;52.466;-1.016;2023-04-24T13:16:38;4.82;;;1.75;;
65717;SDS011;52445;52.466;-1.016;2023-04-24T13:19:04;6.10;;;2.13;;
65717;SDS011;52445;52.466;-1.016;2023-04-24T13:21:31;3.78;;;1.58;;
65717;SDS011;52445;52.466;-1.016;2023-04-24T13:23:58;4.07;;;1.95;;
65717;SDS011;52445;52.466;-1.016;2023-04-24T13:26:25;3.53;;;1.35;;
65717;SDS011;52445;52.466;-1.016;2023-04-24T13:28:52;4.55;;;1.25;;
65717;SDS011;52445;52.466;-1.016;2023-04-24T13:31:18;4.88;;;1.80;;
65717;SDS011;52445;52.466;-1.016;2023-04-24T13:33:45;8.35;;;1.95;;
65717;SDS011;52445;52.466;-1.016;2023-04-24T13:36:11;3.97;;;1.23;;
65717;SDS011;52445;52.466;-1.016;2023-04-24T13:38:38;4.47;;;1.50;;
65717;SDS011;52445;52.466;-1.016;2023-04-24T13:41:05;4.22;;;1.30;;
65717;SDS011;52445;52.466;-1.016;2023-04-24T13:43:31;4.00;;;1.83;;
65717;SDS011;52445;52.466;-1.016;2023-04-24T13:45:58;6.80;;;1.92;;
65717;SDS011;52445;52.466;-1.016;2023-04-24T13:48:25;4.43;;;1.48;;
65717;SDS011;52445;52.466;-1.016;2023-04-24T13:50:52;6.15;;;1.60;;
65717;SDS011;52445;52.466;-1.016;2023-04-24T13:53:18;7.95;;;1.52;;
65717;SDS011;52445;52.466;-1.016;2023-04-24T13:55:45;5.13;;;1.45;;
65717;SDS011;52445;52.466;-1.016;2023-04-24T13:58:12;5.88;;;2.38;;
65717;SDS011;52445;52.466;-1.016;2023-04-24T14:00:38;4.20;;;1.65;;
65717;SDS011;52445;52.466;-1.016;2023-04-24T14:03:05;6.85;;;2.15;;
65717;SDS011;52445;52.466;-1.016;2023-04-24T14:05:32;5.20;;;2.17;;
65717;SDS011;52445;52.466;-1.016;2023-04-24T14:07:58;4.75;;;1.00;;
65717;SDS011;52445;52.466;-1.016;2023-04-24T14:10:25;5.93;;;1.95;;
65717;SDS011;52445;52.466;-1.016;2023-04-24T14:12:53;3.33;;;1.40;;
65717;SDS011;52445;52.466;-1.016;2023-04-24T14:15:20;5.28;;;1.30;;
65717;SDS011;52445;52.466;-1.016;2023-04-24T14:17:47;3.72;;;1.58;;
65717;SDS011;52445;52.466;-1.016;2023-04-24T14:20:16;6.47;;;2.03;;
65717;SDS011;52445;52.466;-1.016;2023-04-24T14:22:42;6.97;;;1.48;;
65717;SDS011;52445;52.466;-1.016;2023-04-24T14:25:09;5.88;;;2.08;;
65717;SDS011;52445;52.466;-1.016;2023-04-24T14:27:36;4.95;;;1.23;;
65717;SDS011;52445;52.466;-1.016;2023-04-24T14:30:03;8.93;;;2.00;;
65717;SDS011;52445;52.466;-1.016;2023-04-24T14:32:30;4.82;;;1.75;;
65717;SDS011;52445;52.466;-1.016;2023-04-24T14:34:57;6.15;;;1.88;;
65717;SDS011;52445;52.466;-1.016;2023-04-24T14:37:24;6.43;;;2.60;;
65717;SDS011;52445;52.466;-1.016;2023-04-24T14:39:50;5.20;;;1.92;;
65717;SDS011;52445;52.466;-1.016;2023-04-24T14:42:37;5.10;;;1.95;;
65717;SDS011;52445;52.466;-1.016;2023-04-24T14:45:04;6.25;;;1.67;;
65717;SDS011;52445;52.466;-1.016;2023-04-24T14:47:31;6.80;;;2.55;;
65717;SDS011;52445;52.466;-1.016;2023-04-24T14:49:58;6.97;;;2.40;;
65717;SDS011;52445;52.466;-1.016;2023-04-24T14:52:24;4.20;;;1.77;;
65717;SDS011;52445;52.466;-1.016;2023-04-24T14:54:51;4.45;;;2.00;;